createdAt,value
2018-02-15T00:05:56.929Z,-1.47
2018-02-15T00:12:01.558Z,-1.47
2018-02-15T00:18:06.066Z,-1.30
2018-02-15T00:24:10.782Z,-1.09
2018-02-15T00:30:15.308Z,-1.00
2018-02-15T00:36:19.842Z,-0.98
2018-02-15T00:42:25.126Z,-1.06
2018-02-15T00:48:30.578Z,-1.15
2018-02-15T00:54:35.202Z,-1.17
2018-02-15T01:00:39.759Z,-1.26
2018-02-15T01:06:44.258Z,-1.29
2018-02-15T01:12:48.842Z,-1.25
2018-02-15T01:18:53.889Z,-1.22
2018-02-15T01:24:58.706Z,-1.30
2018-02-15T01:31:03.196Z,-1.23
2018-02-15T01:37:07.700Z,-1.23
2018-02-15T01:43:12.948Z,-1.17
2018-02-15T01:49:17.588Z,-1.15
2018-02-15T01:55:22.807Z,-1.08
2018-02-15T02:01:27.608Z,-0.91
2018-02-15T02:07:32.150Z,-0.90
2018-02-15T02:13:36.949Z,-0.87
2018-02-15T02:19:41.565Z,-0.86
2018-02-15T02:25:47.559Z,-0.77
2018-02-15T02:31:53.541Z,-0.77
2018-02-15T02:37:58.875Z,-0.78
2018-02-15T02:44:03.419Z,-0.88
2018-02-15T02:50:08.129Z,-0.80
2018-02-15T02:56:12.623Z,-0.77
2018-02-15T03:02:17.143Z,-0.65
2018-02-15T03:08:22.228Z,-0.64
2018-02-15T03:14:27.729Z,-0.61
2018-02-15T03:20:32.319Z,-0.57
2018-02-15T03:26:36.923Z,-0.48
2018-02-15T03:32:41.532Z,-0.46
2018-02-15T03:38:46.100Z,-0.45
2018-02-15T03:44:51.150Z,-0.43
2018-02-15T03:50:55.738Z,-0.43
2018-02-15T03:57:00.217Z,-0.34
2018-02-15T04:03:04.768Z,-0.49
2018-02-15T04:09:09.317Z,-0.39
2018-02-15T04:15:13.973Z,-0.36
2018-02-15T04:21:18.435Z,-0.38
2018-02-15T04:27:23.067Z,-0.44
2018-02-15T04:33:27.910Z,-0.37
2018-02-15T04:39:32.443Z,-0.31
2018-02-15T04:45:37.708Z,-0.36
2018-02-15T04:51:42.254Z,-0.34
2018-02-15T04:57:47.595Z,-0.42
2018-02-15T05:03:52.975Z,-0.37
2018-02-15T05:09:58.234Z,-0.36
2018-02-15T05:16:02.756Z,-0.33
2018-02-15T05:22:07.266Z,-0.33
2018-02-15T05:28:11.790Z,-0.30
2018-02-15T05:34:16.338Z,-0.24
2018-02-15T05:40:21.496Z,-0.21
2018-02-15T05:46:25.991Z,-0.26
2018-02-15T05:52:30.515Z,-0.21
2018-02-15T05:58:35.127Z,-0.30
2018-02-15T06:04:41.141Z,-0.23
2018-02-15T06:10:45.613Z,-0.22
2018-02-15T06:16:50.331Z,-0.21
2018-02-15T06:22:55.044Z,-0.22
2018-02-15T06:28:59.603Z,-0.25
2018-02-15T06:35:04.121Z,-0.18
2018-02-15T06:41:08.670Z,-0.25
2018-02-15T06:47:13.385Z,-0.09
2018-02-15T06:53:17.987Z,0.00
2018-02-15T06:59:22.837Z,0.06
2018-02-15T07:05:27.383Z,0.17
2018-02-15T07:11:32.000Z,0.22
2018-02-15T07:17:36.497Z,0.30
2018-02-15T07:23:40.994Z,0.42
2018-02-15T07:29:46.415Z,0.51
2018-02-15T07:35:51.152Z,0.47
2018-02-15T07:41:56.536Z,0.61
2018-02-15T07:48:01.843Z,0.66
2018-02-15T07:54:06.346Z,0.66
2018-02-15T08:00:10.916Z,0.75
2018-02-15T08:06:15.712Z,0.80
2018-02-15T08:12:21.012Z,0.87
2018-02-15T08:18:26.272Z,0.80
2018-02-15T08:24:30.731Z,0.98
2018-02-15T08:30:35.270Z,1.20
2018-02-15T08:36:40.584Z,1.40
2018-02-15T08:42:45.977Z,1.47
2018-02-15T08:48:51.436Z,1.54
2018-02-15T08:54:56.815Z,1.65
2018-02-15T09:01:01.641Z,1.66
2018-02-15T09:07:06.230Z,1.67
2018-02-15T09:13:11.505Z,1.71
2018-02-15T09:19:15.979Z,1.70
2018-02-15T09:25:21.661Z,1.71
2018-02-15T09:31:26.476Z,1.54
2018-02-15T09:37:31.767Z,1.53
2018-02-15T09:43:37.958Z,1.61
2018-02-15T09:49:42.483Z,1.59
2018-02-15T09:55:47.781Z,1.59
2018-02-15T10:01:52.522Z,1.53
2018-02-15T10:07:57.168Z,1.37
2018-02-15T10:14:01.692Z,1.37
2018-02-15T10:20:06.166Z,1.27
2018-02-15T10:26:10.845Z,1.36
2018-02-15T10:32:15.427Z,1.60
2018-02-15T10:38:20.713Z,1.79
2018-02-15T10:44:25.220Z,1.90
2018-02-15T10:50:29.713Z,1.89
2018-02-15T10:56:35.014Z,2.13
2018-02-15T11:02:39.574Z,2.34
2018-02-15T11:08:44.236Z,2.45
2018-02-15T11:14:48.746Z,2.62
2018-02-15T11:20:53.930Z,2.75
2018-02-15T11:26:59.169Z,2.69
2018-02-15T11:33:03.651Z,2.82
2018-02-15T11:39:08.344Z,3.02
2018-02-15T11:45:12.982Z,3.11
2018-02-15T11:51:18.223Z,3.13
2018-02-15T11:57:22.822Z,3.06
2018-02-15T12:03:28.686Z,2.92
2018-02-15T12:09:33.091Z,2.90
2018-02-15T12:15:37.594Z,2.80
2018-02-15T12:21:42.210Z,2.62
2018-02-15T12:27:46.693Z,2.66
2018-02-15T12:33:51.240Z,2.70
2018-02-15T12:39:55.738Z,2.83
2018-02-15T12:46:00.314Z,3.03
2018-02-15T12:52:04.837Z,2.90
2018-02-15T12:58:10.250Z,2.77
2018-02-15T13:04:14.993Z,2.61
2018-02-15T13:10:19.747Z,2.33
2018-02-15T13:16:42.106Z,2.03
2018-02-15T13:22:49.511Z,1.81
2018-02-15T13:28:54.206Z,1.82
2018-02-15T13:34:58.974Z,1.97
2018-02-15T13:41:03.648Z,1.95
2018-02-15T13:47:08.135Z,1.93
2018-02-15T13:53:13.440Z,1.81
2018-02-15T13:59:17.937Z,1.66
2018-02-15T14:05:22.534Z,1.49
2018-02-15T14:11:27.349Z,1.49
2018-02-15T14:17:32.603Z,1.64
2018-02-15T14:23:37.134Z,1.70
2018-02-15T14:29:42.229Z,1.71
2018-02-15T14:35:46.786Z,1.72
2018-02-15T14:41:52.135Z,1.65
2018-02-15T14:47:56.856Z,1.72
2018-02-15T14:54:01.403Z,1.73
2018-02-15T15:00:06.131Z,1.70
2018-02-15T15:06:10.646Z,1.66
2018-02-15T15:12:15.206Z,1.65
2018-02-15T15:18:20.060Z,1.66
2018-02-15T15:24:24.744Z,1.62
2018-02-15T15:30:30.085Z,1.67
2018-02-15T15:36:34.761Z,1.70
2018-02-15T15:42:39.273Z,1.76
2018-02-15T15:48:44.762Z,1.77
2018-02-15T15:54:49.497Z,1.79
2018-02-15T16:00:54.271Z,1.75
2018-02-15T16:06:59.035Z,1.84
2018-02-15T16:13:03.670Z,1.86
2018-02-15T16:19:08.267Z,1.94
2018-02-15T16:25:12.910Z,1.96
2018-02-15T16:31:17.872Z,2.04
2018-02-15T16:37:22.558Z,2.07
2018-02-15T16:43:27.195Z,1.98
2018-02-15T16:49:31.708Z,1.99
2018-02-15T16:55:36.428Z,2.02
2018-02-15T17:01:41.699Z,2.01
2018-02-15T17:07:46.352Z,2.09
2018-02-15T17:13:51.917Z,2.12
2018-02-15T17:19:56.457Z,2.15
2018-02-15T17:26:00.927Z,2.10
2018-02-15T17:32:05.473Z,2.08
2018-02-15T17:38:10.900Z,2.11
2018-02-15T17:44:15.454Z,2.09
2018-02-15T17:50:20.106Z,2.19
2018-02-15T17:56:24.996Z,2.16
2018-02-15T18:02:29.479Z,2.18
2018-02-15T18:08:34.012Z,2.14
2018-02-15T18:14:38.611Z,2.08
2018-02-15T18:20:43.888Z,2.09
2018-02-15T18:26:48.595Z,2.09
2018-02-15T18:32:53.151Z,2.14
2018-02-15T18:38:57.763Z,2.12
2018-02-15T18:45:03.169Z,2.17
2018-02-15T18:51:07.687Z,2.07
2018-02-15T18:57:12.184Z,2.10
2018-02-15T19:03:16.915Z,2.09
2018-02-15T19:09:21.920Z,2.15
2018-02-15T19:15:26.628Z,2.13
2018-02-15T19:21:31.898Z,2.18
2018-02-15T19:27:36.416Z,1.99
2018-02-15T19:33:41.810Z,2.02
2018-02-15T19:39:46.443Z,1.99
2018-02-15T19:45:51.679Z,2.04
2018-02-15T19:51:56.373Z,2.08
2018-02-15T19:58:00.828Z,2.14
2018-02-15T20:04:05.316Z,2.18
2018-02-15T20:10:10.593Z,2.20
2018-02-15T20:16:15.083Z,2.22
2018-02-15T20:22:19.961Z,2.27
2018-02-15T20:28:27.474Z,2.27
2018-02-15T20:34:32.869Z,2.21
2018-02-15T20:40:37.457Z,2.14
2018-02-15T20:46:41.924Z,2.18
2018-02-15T20:52:51.972Z,2.23
2018-02-15T20:58:56.518Z,2.19
2018-02-15T21:05:01.001Z,2.29
2018-02-15T21:11:05.496Z,2.36
2018-02-15T21:17:10.255Z,2.12
2018-02-15T21:23:14.887Z,2.33
2018-02-15T21:29:19.791Z,2.43
2018-02-15T21:35:24.313Z,2.42
2018-02-15T21:41:28.738Z,2.55
2018-02-15T21:47:34.035Z,2.58
2018-02-15T21:53:38.578Z,2.51
2018-02-15T21:59:43.080Z,2.59
2018-02-15T22:05:47.745Z,2.42
2018-02-15T22:11:52.509Z,2.46
2018-02-15T22:17:57.066Z,2.58
2018-02-15T22:24:01.819Z,2.71
2018-02-15T22:30:06.374Z,2.60
2018-02-15T22:36:10.880Z,2.64
2018-02-15T22:42:15.628Z,2.71
2018-02-15T22:48:21.644Z,2.77
2018-02-15T22:54:26.487Z,2.72
2018-02-15T23:00:31.798Z,2.71
2018-02-15T23:06:36.269Z,2.74
2018-02-15T23:12:40.752Z,2.71
2018-02-15T23:18:45.243Z,2.67
2018-02-15T23:24:50.213Z,2.72
2018-02-15T23:30:55.144Z,2.78
2018-02-15T23:37:00.808Z,2.42
2018-02-15T23:43:05.371Z,2.66
2018-02-15T23:49:10.689Z,2.46
2018-02-15T23:55:15.610Z,2.64
